sensor_id;sensor_type;location;lat;lon;timestamp;pressure;altitude;pressure_sealevel;temperature;humidity
6218;BME280;3142;48.206;11.550;2023-04-19T00:01:24;96211.72;;;10.21;81.07
6218;BME280;3142;48.206;11.550;2023-04-19T00:03:50;96201.53;;;10.11;81.49
6218;BME280;3142;48.206;11.550;2023-04-19T00:06:17;96201.53;;;10.11;81.22
6218;BME280;3142;48.206;11.550;2023-04-19T00:08:46;96196.94;;;10.13;81.50
6218;BME280;3142;48.206;11.550;2023-04-19T00:11:12;96203.44;;;10.17;80.41
6218;BME280;3142;48.206;11.550;2023-04-19T00:13:39;96204.25;;;10.18;80.89
6218;BME280;3142;48.206;11.550;2023-04-19T00:16:06;96201.34;;;10.13;81.73
6218;BME280;3142;48.206;11.550;2023-04-19T00:18:33;96196.59;;;10.16;81.13
6218;BME280;3142;48.206;11.550;2023-04-19T00:20:59;96197.03;;;10.20;80.78
6218;BME280;3142;48.206;11.550;2023-04-19T00:23:26;96194.78;;;10.17;81.56
6218;BME280;3142;48.206;11.550;2023-04-19T00:25:54;96196.59;;;10.16;81.21
6218;BME280;3142;48.206;11.550;2023-04-19T00:28:20;96196.94;;;10.13;81.00
6218;BME280;3142;48.206;11.550;2023-04-19T00:30:47;96184.94;;;10.19;81.07
6218;BME280;3142;48.206;11.550;2023-04-19T00:33:13;96188.47;;;10.26;80.73
6218;BME280;3142;48.206;11.550;2023-04-19T00:35:40;96189.28;;;10.26;80.87
6218;BME280;3142;48.206;11.550;2023-04-19T00:38:07;96176.47;;;10.17;81.18
6218;BME280;3142;48.206;11.550;2023-04-19T00:40:33;96180.09;;;10.16;81.14
6218;BME280;3142;48.206;11.550;2023-04-19T00:43:01;96174.50;;;10.19;81.41
6218;BME280;3142;48.206;11.550;2023-04-19T00:45:27;96176.47;;;10.17;81.61
6218;BME280;3142;48.206;11.550;2023-04-19T00:47:54;96174.31;;;10.20;80.68
6218;BME280;3142;48.206;11.550;2023-04-19T00:50:21;96166.66;;;10.19;80.96
6218;BME280;3142;48.206;11.550;2023-04-19T00:52:47;96166.03;;;10.17;81.25
6218;BME280;3142;48.206;11.550;2023-04-19T00:55:14;96174.50;;;10.19;81.25
6218;BME280;3142;48.206;11.550;2023-04-19T00:57:41;96173.50;;;10.20;80.26
6218;BME280;3142;48.206;11.550;2023-04-19T01:00:10;96162.31;;;10.11;81.00
6218;BME280;3142;48.206;11.550;2023-04-19T01:02:36;96166.56;;;10.12;80.85
6218;BME280;3142;48.206;11.550;2023-04-19T01:05:03;96169.38;;;10.10;81.30
6218;BME280;3142;48.206;11.550;2023-04-19T01:07:32;96162.31;;;10.11;81.08
6218;BME280;3142;48.206;11.550;2023-04-19T01:09:58;96161.72;;;10.09;81.89
6218;BME280;3142;48.206;11.550;2023-04-19T01:12:25;96164.13;;;10.10;81.51
6218;BME280;3142;48.206;11.550;2023-04-19T01:14:51;96161.59;;;10.17;80.92
6218;BME280;3142;48.206;11.550;2023-04-19T01:17:19;96146.84;;;10.09;81.65
6218;BME280;3142;48.206;11.550;2023-04-19T01:19:46;96154.94;;;10.15;81.22
6218;BME280;3142;48.206;11.550;2023-04-19T01:22:15;96149.25;;;10.11;81.71
6218;BME280;3142;48.206;11.550;2023-04-19T01:24:42;96151.25;;;10.09;81.88
6218;BME280;3142;48.206;11.550;2023-04-19T01:27:08;96143.31;;;10.17;81.61
6218;BME280;3142;48.206;11.550;2023-04-19T01:29:35;96149.72;;;10.15;81.12
6218;BME280;3142;48.206;11.550;2023-04-19T01:32:01;96144.84;;;10.12;81.20
6218;BME280;3142;48.206;11.550;2023-04-19T01:34:28;96144.03;;;10.11;81.82
6218;BME280;3142;48.206;11.550;2023-04-19T01:36:54;96138.25;;;10.16;81.52
6218;BME280;3142;48.206;11.550;2023-04-19T01:39:24;96138.25;;;10.16;80.96
6218;BME280;3142;48.206;11.550;2023-04-19T01:41:51;96130.16;;;10.10;81.37
6218;BME280;3142;48.206;11.550;2023-04-19T01:44:17;96134.94;;;10.07;81.46
6218;BME280;3142;48.206;11.550;2023-04-19T01:46:44;96127.22;;;9.99;81.99
6218;BME280;3142;48.206;11.550;2023-04-19T01:49:10;96127.09;;;10.07;82.01
6218;BME280;3142;48.206;11.550;2023-04-19T01:51:37;96121.25;;;10.05;81.44
6218;BME280;3142;48.206;11.550;2023-04-19T01:54:03;96125.59;;;9.98;82.06
6218;BME280;3142;48.206;11.550;2023-04-19T01:56:31;96128.78;;;9.93;82.21
6218;BME280;3142;48.206;11.550;2023-04-19T01:58:58;96121.13;;;9.92;82.43
6218;BME280;3142;48.206;11.550;2023-04-19T02:01:24;96128.41;;;9.96;82.37
6218;BME280;3142;48.206;11.550;2023-04-19T02:03:51;96116.41;;;10.02;82.00
6218;BME280;3142;48.206;11.550;2023-04-19T02:06:17;96129.63;;;10.00;82.22
6218;BME280;3142;48.206;11.550;2023-04-19T02:08:43;96123.50;;;10.08;82.04
6218;BME280;3142;48.206;11.550;2023-04-19T02:11:11;96120.44;;;10.04;82.00
6218;BME280;3142;48.206;11.550;2023-04-19T02:13:40;96120.19;;;9.99;82.15
6218;BME280;3142;48.206;11.550;2023-04-19T02:16:07;96110.63;;;10.06;82.47
6218;BME280;3142;48.206;11.550;2023-04-19T02:18:34;96111.34;;;10.00;82.83
6218;BME280;3142;48.206;11.550;2023-04-19T02:21:03;96106.81;;;10.09;82.43
6218;BME280;3142;48.206;11.550;2023-04-19T02:23:30;96104.00;;;10.10;81.83
6218;BME280;3142;48.206;11.550;2023-04-19T02:25:56;96100.72;;;10.02;82.93
6218;BME280;3142;48.206;11.550;2023-04-19T02:28:23;96101.34;;;10.04;82.59
6218;BME280;3142;48.206;11.550;2023-04-19T02:30:51;96094.53;;;10.09;83.02
6218;BME280;3142;48.206;11.550;2023-04-19T02:33:17;96099.78;;;10.09;82.33
6218;BME280;3142;48.206;11.550;2023-04-19T02:35:43;96097.84;;;9.97;83.23
6218;BME280;3142;48.206;11.550;2023-04-19T02:38:10;96096.84;;;9.98;83.16
6218;BME280;3142;48.206;11.550;2023-04-19T02:40:36;96092.69;;;10.03;83.75
6218;BME280;3142;48.206;11.550;2023-04-19T02:43:02;96090.69;;;10.05;83.78
6218;BME280;3142;48.206;11.550;2023-04-19T02:45:29;96094.03;;;9.99;83.87
6218;BME280;3142;48.206;11.550;2023-04-19T02:47:57;96091.44;;;9.99;83.98
6218;BME280;3142;48.206;11.550;2023-04-19T02:50:25;96086.47;;;10.04;84.06
6218;BME280;3142;48.206;11.550;2023-04-19T02:52:52;96081.97;;;9.98;84.25
6218;BME280;3142;48.206;11.550;2023-04-19T02:55:18;96088.19;;;9.97;84.37
6218;BME280;3142;48.206;11.550;2023-04-19T02:57:45;96089.31;;;9.88;84.21
6218;BME280;3142;48.206;11.550;2023-04-19T03:00:12;96082.63;;;9.86;85.15
6218;BME280;3142;48.206;11.550;2023-04-19T03:02:40;96079.50;;;9.90;84.62
6218;BME280;3142;48.206;11.550;2023-04-19T03:05:09;96073.88;;;9.93;84.81
6218;BME280;3142;48.206;11.550;2023-04-19T03:07:35;96072.69;;;9.96;84.64
6218;BME280;3142;48.206;11.550;2023-04-19T03:10:02;96075.13;;;9.97;85.00
6218;BME280;3142;48.206;11.550;2023-04-19T03:12:29;96069.50;;;10.00;84.92
6218;BME280;3142;48.206;11.550;2023-04-19T03:14:55;96074.75;;;10.00;85.01
6218;BME280;3142;48.206;11.550;2023-04-19T03:17:21;96079.31;;;9.92;85.46
6218;BME280;3142;48.206;11.550;2023-04-19T03:19:48;96069.84;;;9.91;85.56
6218;BME280;3142;48.206;11.550;2023-04-19T03:22:15;96065.44;;;9.91;84.97
6218;BME280;3142;48.206;11.550;2023-04-19T03:24:42;96065.81;;;9.88;85.87
6218;BME280;3142;48.206;11.550;2023-04-19T03:27:08;96057.16;;;9.88;85.54
6218;BME280;3142;48.206;11.550;2023-04-19T03:29:34;96058.59;;;9.90;85.60
6218;BME280;3142;48.206;11.550;2023-04-19T03:32:01;96057.22;;;9.94;85.16
6218;BME280;3142;48.206;11.550;2023-04-19T03:34:27;96052.97;;;9.93;84.95
6218;BME280;3142;48.206;11.550;2023-04-19T03:36:54;96055.16;;;9.90;85.57
6218;BME280;3142;48.206;11.550;2023-04-19T03:39:22;96042.91;;;9.90;85.31
6218;BME280;3142;48.206;11.550;2023-04-19T03:41:48;96045.72;;;9.89;85.50
6218;BME280;3142;48.206;11.550;2023-04-19T03:44:15;96049.13;;;9.89;86.11
6218;BME280;3142;48.206;11.550;2023-04-19T03:46:41;96046.31;;;9.91;85.56
6218;BME280;3142;48.206;11.550;2023-04-19T03:49:10;96046.25;;;9.84;86.03
6218;BME280;3142;48.206;11.550;2023-04-19T03:51:36;96041.78;;;9.78;86.32
6218;BME280;3142;48.206;11.550;2023-04-19T03:54:03;96041.59;;;9.79;86.43
6218;BME280;3142;48.206;11.550;2023-04-19T03:56:30;96037.75;;;9.75;86.05
6218;BME280;3142;48.206;11.550;2023-04-19T03:58:57;96039.34;;;9.76;85.60
6218;BME280;3142;48.206;11.550;2023-04-19T04:01:23;96041.50;;;9.73;86.19
6218;BME280;3142;48.206;11.550;2023-04-19T04:03:50;96045.69;;;9.67;85.45
6218;BME280;3142;48.206;11.550;2023-04-19T04:06:17;96043.44;;;9.64;86.28
6218;BME280;3142;48.206;11.550;2023-04-19T04:08:43;96042.88;;;9.69;85.92
6218;BME280;3142;48.206;11.550;2023-04-19T04:11:10;96041.50;;;9.73;86.79
6218;BME280;3142;48.206;11.550;2023-04-19T04:13:38;96043.59;;;9.77;86.32
6218;BME280;3142;48.206;11.550;2023-04-19T04:16:04;96046.81;;;9.79;86.63
6218;BME280;3142;48.206;11.550;2023-04-19T04:18:31;96038.97;;;9.79;85.55
6218;BME280;3142;48.206;11.550;2023-04-19T04:20:57;96047.44;;;9.82;85.93
6218;BME280;3142;48.206;11.550;2023-04-19T04:23:24;96048.72;;;9.71;86.34
6218;BME280;3142;48.206;11.550;2023-04-19T04:25:55;96046.72;;;9.73;85.96
6218;BME280;3142;48.206;11.550;2023-04-19T04:28:23;96049.53;;;9.71;86.78
6218;BME280;3142;48.206;11.550;2023-04-19T04:30:51;96047.00;;;9.78;85.58
6218;BME280;3142;48.206;11.550;2023-04-19T04:33:17;96044.59;;;9.76;86.41
6218;BME280;3142;48.206;11.550;2023-04-19T04:35:43;96045.38;;;9.77;85.71
6218;BME280;3142;48.206;11.550;2023-04-19T04:38:10;96048.19;;;9.75;86.44
6218;BME280;3142;48.206;11.550;2023-04-19T04:40:37;96051.84;;;9.81;86.00
6218;BME280;3142;48.206;11.550;2023-04-19T04:43:04;96052.28;;;9.85;85.76
6218;BME280;3142;48.206;11.550;2023-04-19T04:45:30;96050.13;;;9.88;85.90
6218;BME280;3142;48.206;11.550;2023-04-19T04:47:59;96053.91;;;9.86;85.96
6218;BME280;3142;48.206;11.550;2023-04-19T04:50:26;96050.28;;;9.87;85.78
6218;BME280;3142;48.206;11.550;2023-04-19T04:52:52;96046.31;;;9.91;85.76
6218;BME280;3142;48.206;11.550;2023-04-19T04:55:18;96041.91;;;9.91;85.66
6218;BME280;3142;48.206;11.550;2023-04-19T04:57:45;96042.34;;;9.95;85.54
6218;BME280;3142;48.206;11.550;2023-04-19T05:00:12;96042.22;;;10.03;85.29
6218;BME280;3142;48.206;11.550;2023-04-19T05:02:38;96042.22;;;10.03;84.63
6218;BME280;3142;48.206;11.550;2023-04-19T05:05:07;96036.38;;;10.01;84.93
6218;BME280;3142;48.206;11.550;2023-04-19T05:07:35;96042.75;;;9.98;84.55
6218;BME280;3142;48.206;11.550;2023-04-19T05:10:01;96042.56;;;10.00;84.36
6218;BME280;3142;48.206;11.550;2023-04-19T05:12:28;96040.94;;;9.99;84.64
6218;BME280;3142;48.206;11.550;2023-04-19T05:14:54;96042.22;;;10.03;84.27
6218;BME280;3142;48.206;11.550;2023-04-19T05:17:21;96038.53;;;9.97;84.37
6218;BME280;3142;48.206;11.550;2023-04-19T05:19:47;96038.72;;;9.96;84.85
6218;BME280;3142;48.206;11.550;2023-04-19T05:22:15;96044.75;;;9.96;84.07
6218;BME280;3142;48.206;11.550;2023-04-19T05:24:41;96047.75;;;9.93;83.87
6218;BME280;3142;48.206;11.550;2023-04-19T05:27:08;96046.31;;;9.91;84.36
6218;BME280;3142;48.206;11.550;2023-04-19T05:29:35;96045.06;;;9.87;84.46
6218;BME280;3142;48.206;11.550;2023-04-19T05:32:01;96045.44;;;9.84;84.29
6218;BME280;3142;48.206;11.550;2023-04-19T05:34:28;96039.84;;;9.87;84.30
6218;BME280;3142;48.206;11.550;2023-04-19T05:36:54;96040.03;;;9.85;83.43
6218;BME280;3142;48.206;11.550;2023-04-19T05:39:22;96042.59;;;9.78;84.45
6218;BME280;3142;48.206;11.550;2023-04-19T05:41:48;96031.56;;;9.83;83.84
6218;BME280;3142;48.206;11.550;2023-04-19T05:44:15;96039.59;;;9.82;84.38
6218;BME280;3142;48.206;11.550;2023-04-19T05:46:41;96031.75;;;9.82;84.80
6218;BME280;3142;48.206;11.550;2023-04-19T05:49:07;96035.38;;;9.80;84.30
6218;BME280;3142;48.206;11.550;2023-04-19T05:51:34;96029.84;;;9.90;83.96
6218;BME280;3142;48.206;11.550;2023-04-19T05:54:00;96033.50;;;9.96;83.77
6218;BME280;3142;48.206;11.550;2023-04-19T05:56:28;96030.50;;;9.99;83.02
6218;BME280;3142;48.206;11.550;2023-04-19T05:58:55;96032.06;;;9.93;83.33
6218;BME280;3142;48.206;11.550;2023-04-19T06:01:21;96033.69;;;9.94;83.38
6218;BME280;3142;48.206;11.550;2023-04-19T06:03:48;96038.28;;;9.92;83.71
6218;BME280;3142;48.206;11.550;2023-04-19T06:06:17;96039.47;;;9.90;83.11
6218;BME280;3142;48.206;11.550;2023-04-19T06:08:43;96037.41;;;9.85;83.07
6218;BME280;3142;48.206;11.550;2023-04-19T06:11:10;96037.97;;;9.80;83.58
6218;BME280;3142;48.206;11.550;2023-04-19T06:13:37;96039.97;;;9.78;83.15
6218;BME280;3142;48.206;11.550;2023-04-19T06:16:05;96043.38;;;9.79;83.48
6218;BME280;3142;48.206;11.550;2023-04-19T06:18:32;96042.28;;;9.88;83.44
6218;BME280;3142;48.206;11.550;2023-04-19T06:20:58;96041.72;;;9.93;82.85
6218;BME280;3142;48.206;11.550;2023-04-19T06:23:25;96038.91;;;9.94;82.92
6218;BME280;3142;48.206;11.550;2023-04-19T06:25:51;96036.91;;;9.96;83.17
6218;BME280;3142;48.206;11.550;2023-04-19T06:28:18;96036.72;;;9.98;82.90
6218;BME280;3142;48.206;11.550;2023-04-19T06:30:45;96031.06;;;9.94;82.29
6218;BME280;3142;48.206;11.550;2023-04-19T06:33:13;96032.63;;;9.89;83.03
6218;BME280;3142;48.206;11.550;2023-04-19T06:35:39;96029.03;;;9.90;83.14
6218;BME280;3142;48.206;11.550;2023-04-19T06:38:06;96028.22;;;9.89;82.99
6218;BME280;3142;48.206;11.550;2023-04-19T06:40:32;96029.88;;;9.97;82.63
6218;BME280;3142;48.206;11.550;2023-04-19T06:42:59;96029.34;;;10.01;82.55
6218;BME280;3142;48.206;11.550;2023-04-19T06:45:25;96025.91;;;10.01;82.33
6218;BME280;3142;48.206;11.550;2023-04-19T06:47:53;96023.13;;;10.02;82.69
6218;BME280;3142;48.206;11.550;2023-04-19T06:50:20;96024.78;;;10.10;82.19
6218;BME280;3142;48.206;11.550;2023-04-19T06:52:46;96023.03;;;10.17;82.14
6218;BME280;3142;48.206;11.550;2023-04-19T06:55:13;96012.94;;;10.14;82.76
6218;BME280;3142;48.206;11.550;2023-04-19T06:57:39;96018.63;;;10.18;82.27
6218;BME280;3142;48.206;11.550;2023-04-19T07:00:07;96018.88;;;10.23;81.94
6218;BME280;3142;48.206;11.550;2023-04-19T07:02:34;96020.84;;;10.21;82.04
6218;BME280;3142;48.206;11.550;2023-04-19T07:05:02;96018.50;;;10.26;82.22
6218;BME280;3142;48.206;11.550;2023-04-19T07:07:28;96011.72;;;10.31;81.61
6218;BME280;3142;48.206;11.550;2023-04-19T07:09:55;96013.97;;;10.41;81.21
6218;BME280;3142;48.206;11.550;2023-04-19T07:12:21;96017.59;;;10.40;80.87
6218;BME280;3142;48.206;11.550;2023-04-19T07:14:47;96015.56;;;10.35;81.21
6218;BME280;3142;48.206;11.550;2023-04-19T07:17:14;96015.63;;;10.42;80.87
6218;BME280;3142;48.206;11.550;2023-04-19T07:19:46;96014.22;;;10.46;80.71
6218;BME280;3142;48.206;11.550;2023-04-19T07:22:14;96011.81;;;10.45;80.17
6218;BME280;3142;48.206;11.550;2023-04-19T07:24:40;96009.00;;;10.46;80.17
6218;BME280;3142;48.206;11.550;2023-04-19T07:27:08;96010.84;;;10.52;79.81
6218;BME280;3142;48.206;11.550;2023-04-19T07:29:35;96008.88;;;10.61;79.63
6218;BME280;3142;48.206;11.550;2023-04-19T07:32:02;96004.41;;;10.55;79.21
6218;BME280;3142;48.206;11.550;2023-04-19T07:34:28;96011.84;;;10.51;79.17
6218;BME280;3142;48.206;11.550;2023-04-19T07:36:55;96007.22;;;10.53;79.65
6218;BME280;3142;48.206;11.550;2023-04-19T07:39:22;96001.63;;;10.56;79.45
6218;BME280;3142;48.206;11.550;2023-04-19T07:41:49;95993.19;;;10.61;78.86
6218;BME280;3142;48.206;11.550;2023-04-19T07:44:15;95994.06;;;10.75;79.03
6218;BME280;3142;48.206;11.550;2023-04-19T07:46:42;95988.91;;;10.94;78.33
6218;BME280;3142;48.206;11.550;2023-04-19T07:49:09;95998.88;;;11.12;78.02
6218;BME280;3142;48.206;11.550;2023-04-19T07:51:35;95993.09;;;11.37;76.44
6218;BME280;3142;48.206;11.550;2023-04-19T07:54:01;95998.41;;;11.56;75.48
6218;BME280;3142;48.206;11.550;2023-04-19T07:56:29;95984.19;;;12.05;73.87
6218;BME280;3142;48.206;11.550;2023-04-19T07:58:56;95993.66;;;12.13;73.02
6218;BME280;3142;48.206;11.550;2023-04-19T08:01:22;95996.50;;;11.98;72.70
6218;BME280;3142;48.206;11.550;2023-04-19T08:03:49;95993.66;;;11.86;72.87
6218;BME280;3142;48.206;11.550;2023-04-19T08:06:15;95995.66;;;11.84;73.84
6218;BME280;3142;48.206;11.550;2023-04-19T08:08:42;95990.44;;;11.98;73.29
6218;BME280;3142;48.206;11.550;2023-04-19T08:11:09;95988.41;;;12.00;72.71
6218;BME280;3142;48.206;11.550;2023-04-19T08:13:37;95989.22;;;12.00;72.08
6218;BME280;3142;48.206;11.550;2023-04-19T08:16:03;95987.78;;;11.91;72.36
6218;BME280;3142;48.206;11.550;2023-04-19T08:18:30;95993.25;;;11.83;73.76
6218;BME280;3142;48.206;11.550;2023-04-19T08:20:56;95981.56;;;11.85;74.04
6218;BME280;3142;48.206;11.550;2023-04-19T08:23:23;95985.59;;;11.88;73.68
6218;BME280;3142;48.206;11.550;2023-04-19T08:25:50;95981.75;;;11.91;73.66
6218;BME280;3142;48.206;11.550;2023-04-19T08:28:16;95977.13;;;11.99;73.20
6218;BME280;3142;48.206;11.550;2023-04-19T08:30:44;95976.13;;;12.07;72.17
6218;BME280;3142;48.206;11.550;2023-04-19T08:33:11;95971.88;;;12.26;72.33
6218;BME280;3142;48.206;11.550;2023-04-19T08:35:38;95974.88;;;12.29;71.88
6218;BME280;3142;48.206;11.550;2023-04-19T08:38:05;95979.75;;;12.12;71.88
6218;BME280;3142;48.206;11.550;2023-04-19T08:40:32;95976.91;;;12.01;72.41
6218;BME280;3142;48.206;11.550;2023-04-19T08:42:59;95969.66;;;12.03;72.78
6218;BME280;3142;48.206;11.550;2023-04-19T08:45:30;95969.06;;;12.01;72.25
6218;BME280;3142;48.206;11.550;2023-04-19T08:48:00;95974.09;;;12.02;71.50
6218;BME280;3142;48.206;11.550;2023-04-19T08:50:27;95964.84;;;11.93;72.75
6218;BME280;3142;48.206;11.550;2023-04-19T08:52:54;95962.00;;;11.95;72.77
6218;BME280;3142;48.206;11.550;2023-04-19T08:55:21;95961.59;;;11.98;71.99
6218;BME280;3142;48.206;11.550;2023-04-19T08:57:47;95957.97;;;11.99;71.87
6218;BME280;3142;48.206;11.550;2023-04-19T09:00:15;95958.97;;;11.98;72.23
6218;BME280;3142;48.206;11.550;2023-04-19T09:02:45;95957.78;;;11.94;72.52
6218;BME280;3142;48.206;11.550;2023-04-19T09:05:14;95948.69;;;11.96;72.04
6218;BME280;3142;48.206;11.550;2023-04-19T09:07:42;95946.84;;;12.03;71.04
6218;BME280;3142;48.206;11.550;2023-04-19T09:10:10;95945.25;;;12.09;71.37
6218;BME280;3142;48.206;11.550;2023-04-19T09:12:37;95952.91;;;12.17;71.37
6218;BME280;3142;48.206;11.550;2023-04-19T09:15:06;95940.59;;;12.24;69.92
6218;BME280;3142;48.206;11.550;2023-04-19T09:17:33;95941.59;;;12.36;69.20
6218;BME280;3142;48.206;11.550;2023-04-19T09:19:59;95938.13;;;12.42;69.68
6218;BME280;3142;48.206;11.550;2023-04-19T09:22:27;95930.44;;;12.54;69.33
6218;BME280;3142;48.206;11.550;2023-04-19T09:24:54;95928.16;;;12.78;68.27
6218;BME280;3142;48.206;11.550;2023-04-19T09:27:25;95924.84;;;13.02;66.82
6218;BME280;3142;48.206;11.550;2023-04-19T09:29:53;95915.47;;;13.57;65.68
6218;BME280;3142;48.206;11.550;2023-04-19T09:32:19;95915.16;;;13.72;66.04
6218;BME280;3142;48.206;11.550;2023-04-19T09:34:50;95908.81;;;14.05;64.86
6218;BME280;3142;48.206;11.550;2023-04-19T09:37:17;95905.31;;;14.54;62.74
6218;BME280;3142;48.206;11.550;2023-04-19T09:39:45;95902.63;;;14.36;63.39
6218;BME280;3142;48.206;11.550;2023-04-19T09:42:11;95909.56;;;14.12;63.77
6218;BME280;3142;48.206;11.550;2023-04-19T09:44:38;95905.16;;;13.81;64.53
6218;BME280;3142;48.206;11.550;2023-04-19T09:47:20;95903.00;;;13.40;65.30
6218;BME280;3142;48.206;11.550;2023-04-19T09:49:47;95898.91;;;13.19;67.37
6218;BME280;3142;48.206;11.550;2023-04-19T09:52:18;95896.69;;;13.16;67.78
6218;BME280;3142;48.206;11.550;2023-04-19T09:54:47;95898.56;;;13.02;68.05
6218;BME280;3142;48.206;11.550;2023-04-19T09:57:17;95891.56;;;12.83;69.41
6218;BME280;3142;48.206;11.550;2023-04-19T09:59:44;95886.31;;;12.83;70.10
6218;BME280;3142;48.206;11.550;2023-04-19T10:02:12;95881.06;;;12.83;68.77
6218;BME280;3142;48.206;11.550;2023-04-19T10:04:40;95881.66;;;12.85;69.87
6218;BME280;3142;48.206;11.550;2023-04-19T10:07:07;95881.13;;;12.76;70.06
6218;BME280;3142;48.206;11.550;2023-04-19T10:09:34;95882.72;;;12.77;68.83
6218;BME280;3142;48.206;11.550;2023-04-19T10:12:04;95884.94;;;12.73;69.04
6218;BME280;3142;48.206;11.550;2023-04-19T10:14:34;95876.47;;;12.71;68.92
6218;BME280;3142;48.206;11.550;2023-04-19T10:17:00;95877.91;;;12.67;69.20
6218;BME280;3142;48.206;11.550;2023-04-19T10:19:27;95876.66;;;12.77;69.74
6218;BME280;3142;48.206;11.550;2023-04-19T10:21:55;95872.19;;;12.84;70.00
6218;BME280;3142;48.206;11.550;2023-04-19T10:24:22;95871.97;;;12.85;69.19
6218;BME280;3142;48.206;11.550;2023-04-19T10:27:09;95870.00;;;12.74;69.51
6218;BME280;3142;48.206;11.550;2023-04-19T10:29:58;95863.00;;;12.55;69.73
6218;BME280;3142;48.206;11.550;2023-04-19T10:32:29;95869.91;;;12.49;70.02
6218;BME280;3142;48.206;11.550;2023-04-19T10:35:06;95861.03;;;12.50;70.35
6218;BME280;3142;48.206;11.550;2023-04-19T10:37:33;95867.88;;;12.51;70.04
6218;BME280;3142;48.206;11.550;2023-04-19T10:39:59;95859.41;;;12.42;69.18
6218;BME280;3142;48.206;11.550;2023-04-19T10:45:33;95854.41;;;12.28;69.53
6218;BME280;3142;48.206;11.550;2023-04-19T10:48:01;95851.41;;;12.24;68.80
6218;BME280;3142;48.206;11.550;2023-04-19T10:50:28;95846.13;;;12.31;68.59
6218;BME280;3142;48.206;11.550;2023-04-19T10:52:54;95845.50;;;12.42;68.53
6218;BME280;3142;48.206;11.550;2023-04-19T10:55:21;95847.13;;;12.36;69.11
6218;BME280;3142;48.206;11.550;2023-04-19T10:58:00;95841.88;;;12.36;68.22
6218;BME280;3142;48.206;11.550;2023-04-19T11:00:27;95839.47;;;12.35;68.15
6218;BME280;3142;48.206;11.550;2023-04-19T11:02:57;95835.03;;;12.35;68.03
6218;BME280;3142;48.206;11.550;2023-04-19T11:05:23;95831.75;;;12.46;68.01
6218;BME280;3142;48.206;11.550;2023-04-19T11:07:50;95828.13;;;12.48;67.87
6218;BME280;3142;48.206;11.550;2023-04-19T11:10:27;95828.13;;;12.48;67.86
6218;BME280;3142;48.206;11.550;2023-04-19T11:12:54;95824.28;;;12.43;67.95
6218;BME280;3142;48.206;11.550;2023-04-19T11:15:21;95829.31;;;12.45;67.28
6218;BME280;3142;48.206;11.550;2023-04-19T11:17:49;95827.97;;;12.36;68.36
6218;BME280;3142;48.206;11.550;2023-04-19T11:20:22;95820.31;;;12.28;68.10
6218;BME280;3142;48.206;11.550;2023-04-19T11:22:48;95815.28;;;12.20;69.01
6218;BME280;3142;48.206;11.550;2023-04-19T11:25:16;95819.38;;;12.09;70.16
6218;BME280;3142;48.206;11.550;2023-04-19T11:27:44;95820.22;;;11.96;71.31
6218;BME280;3142;48.206;11.550;2023-04-19T11:30:12;95820.38;;;12.01;72.03
6218;BME280;3142;48.206;11.550;2023-04-19T11:32:44;95813.97;;;11.84;72.48
6218;BME280;3142;48.206;11.550;2023-04-19T11:35:10;95818.41;;;11.70;73.47
6218;BME280;3142;48.206;11.550;2023-04-19T11:37:38;95821.44;;;11.61;74.60
6218;BME280;3142;48.206;11.550;2023-04-19T11:40:06;95821.44;;;11.54;75.30
6218;BME280;3142;48.206;11.550;2023-04-19T11:42:33;95817.81;;;11.55;75.56
6218;BME280;3142;48.206;11.550;2023-04-19T11:45:00;95813.78;;;11.52;76.46
6218;BME280;3142;48.206;11.550;2023-04-19T11:47:26;95816.63;;;11.38;76.96
6218;BME280;3142;48.206;11.550;2023-04-19T11:49:53;95820.63;;;11.27;77.58
6218;BME280;3142;48.206;11.550;2023-04-19T11:52:21;95816.78;;;11.23;78.56
6218;BME280;3142;48.206;11.550;2023-04-19T11:54:49;95807.31;;;11.15;78.87
6218;BME280;3142;48.206;11.550;2023-04-19T11:57:26;95811.53;;;11.10;78.90
6218;BME280;3142;48.206;11.550;2023-04-19T12:00:01;95806.31;;;11.03;79.11
6218;BME280;3142;48.206;11.550;2023-04-19T12:02:36;95808.94;;;11.03;79.63
6218;BME280;3142;48.206;11.550;2023-04-19T12:05:06;95813.16;;;11.04;80.27
6218;BME280;3142;48.206;11.550;2023-04-19T12:07:33;95805.69;;;11.08;80.26
6218;BME280;3142;48.206;11.550;2023-04-19T12:10:08;95801.06;;;11.10;80.08
6218;BME280;3142;48.206;11.550;2023-04-19T12:12:35;95802.28;;;11.14;80.35
6218;BME280;3142;48.206;11.550;2023-04-19T12:15:03;95807.53;;;11.14;80.55
6218;BME280;3142;48.206;11.550;2023-04-19T12:17:29;95798.88;;;11.13;81.48
6218;BME280;3142;48.206;11.550;2023-04-19T12:19:56;95796.03;;;11.08;81.37
6218;BME280;3142;48.206;11.550;2023-04-19T12:22:22;95796.84;;;11.02;82.16
6218;BME280;3142;48.206;11.550;2023-04-19T12:24:50;95803.28;;;11.00;82.19
6218;BME280;3142;48.206;11.550;2023-04-19T12:27:18;95800.25;;;11.03;82.18
6218;BME280;3142;48.206;11.550;2023-04-19T12:29:45;95797.25;;;11.06;82.88
6218;BME280;3142;48.206;11.550;2023-04-19T12:32:11;95797.03;;;11.20;82.46
6218;BME280;3142;48.206;11.550;2023-04-19T12:34:39;95793.84;;;11.32;82.31
6218;BME280;3142;48.206;11.550;2023-04-19T12:37:06;95796.63;;;11.23;81.73
6218;BME280;3142;48.206;11.550;2023-04-19T12:39:32;95791.63;;;11.15;81.15
6218;BME280;3142;48.206;11.550;2023-04-19T12:41:59;95791.41;;;11.17;80.68
6218;BME280;3142;48.206;11.550;2023-04-19T12:44:26;95783.34;;;11.05;81.15
6218;BME280;3142;48.206;11.550;2023-04-19T12:46:53;95782.34;;;11.06;81.00
6218;BME280;3142;48.206;11.550;2023-04-19T12:49:21;95781.94;;;11.03;81.47
6218;BME280;3142;48.206;11.550;2023-04-19T12:51:48;95779.13;;;11.11;81.45
6218;BME280;3142;48.206;11.550;2023-04-19T12:54:14;95775.69;;;11.23;81.42
6218;BME280;3142;48.206;11.550;2023-04-19T12:56:41;95773.69;;;11.32;80.90
6218;BME280;3142;48.206;11.550;2023-04-19T12:59:07;95782.75;;;11.23;81.41
6218;BME280;3142;48.206;11.550;2023-04-19T13:01:35;95779.13;;;11.17;81.30
6218;BME280;3142;48.206;11.550;2023-04-19T13:04:02;95780.75;;;11.12;81.97
6218;BME280;3142;48.206;11.550;2023-04-19T13:06:28;95772.69;;;11.20;81.87
6218;BME280;3142;48.206;11.550;2023-04-19T13:08:55;95774.69;;;11.18;81.34
6218;BME280;3142;48.206;11.550;2023-04-19T13:11:21;95775.91;;;11.22;81.96
6218;BME280;3142;48.206;11.550;2023-04-19T13:13:51;95770.44;;;11.23;81.73
6218;BME280;3142;48.206;11.550;2023-04-19T13:16:18;95769.88;;;11.28;82.02
6218;BME280;3142;48.206;11.550;2023-04-19T13:18:46;95773.28;;;11.22;82.29